createdAt,value
2023-01-29T00:04:37.873Z,96327.34
2023-01-29T00:09:40.345Z,96327.31
2023-01-29T00:14:42.469Z,96320.31
2023-01-29T00:19:44.486Z,96343.19
2023-01-29T00:24:46.747Z,96342.16
2023-01-29T00:30:09.041Z,96315.75
2023-01-29T00:35:12.222Z,96341.44
2023-01-29T00:40:14.669Z,96338.41
2023-01-29T00:45:17.343Z,96345.69
2023-01-29T00:50:21.276Z,96338.94
2023-01-29T00:55:42.444Z,96324.06
2023-01-29T01:00:44.668Z,96356.34
2023-01-29T01:05:46.935Z,96336.59
2023-01-29T01:10:59.503Z,96345.28
2023-01-29T01:16:01.987Z,96332.28
2023-01-29T01:21:04.356Z,96353.63
2023-01-29T01:26:09.854Z,96341.34
2023-01-29T01:31:14.546Z,96364.63
2023-01-29T01:36:17.381Z,96331.59
2023-01-29T01:41:22.797Z,96361.25
2023-01-29T01:46:28.644Z,96343.63
2023-01-29T01:51:33.929Z,96333.25
2023-01-29T01:56:41.963Z,96337.41
2023-01-29T02:01:50.361Z,96321.91
2023-01-29T02:07:13.141Z,96322.94
2023-01-29T02:12:17.312Z,96349.31
2023-01-29T02:17:20.914Z,96326.56
2023-01-29T02:22:29.528Z,96357.00
2023-01-29T02:27:42.111Z,96366.94
2023-01-29T02:33:02.593Z,96339.66
2023-01-29T02:38:10.889Z,96367.84
2023-01-29T02:43:28.401Z,96373.06
2023-01-29T02:48:44.899Z,96370.31
2023-01-29T02:53:56.625Z,96345.50
2023-01-29T02:59:06.023Z,96377.34
2023-01-29T03:04:17.255Z,96363.53
2023-01-29T03:09:30.507Z,96365.78
2023-01-29T03:14:59.221Z,96356.88
2023-01-29T03:20:07.673Z,96372.47
2023-01-29T03:25:30.046Z,96384.16
2023-01-29T03:30:55.477Z,96366.94
2023-01-29T03:36:17.995Z,96374.44
2023-01-29T03:41:33.367Z,96378.94
2023-01-29T03:46:45.344Z,96377.28
2023-01-29T03:52:08.485Z,96390.97
2023-01-29T03:57:29.060Z,96379.81
2023-01-29T04:02:39.927Z,96389.19
2023-01-29T04:07:46.887Z,96374.69
2023-01-29T04:13:01.407Z,96358.66
2023-01-29T04:18:05.403Z,96398.72
2023-01-29T04:23:39.723Z,96398.06
2023-01-29T04:29:11.291Z,96385.88
2023-01-29T04:34:40.672Z,96407.38
2023-01-29T04:40:04.632Z,96403.22
2023-01-29T04:45:18.506Z,96408.06
2023-01-29T04:50:49.667Z,96413.22
2023-01-29T04:55:55.240Z,96415.81
2023-01-29T05:01:01.302Z,96402.47
2023-01-29T05:06:05.511Z,96430.28
2023-01-29T05:11:08.070Z,96404.69
2023-01-29T05:16:19.721Z,96410.78
2023-01-29T05:21:23.675Z,96425.34
2023-01-29T05:26:44.421Z,96428.66
2023-01-29T05:31:46.891Z,96418.50
2023-01-29T05:36:49.068Z,96427.06
2023-01-29T05:41:51.889Z,96446.59
2023-01-29T05:46:54.108Z,96445.88
2023-01-29T05:51:56.540Z,96461.28
2023-01-29T05:56:58.668Z,96450.16
2023-01-29T06:02:00.882Z,96451.25
2023-01-29T06:07:03.790Z,96459.66
2023-01-29T06:12:06.578Z,96462.97
2023-01-29T06:17:08.806Z,96465.63
2023-01-29T06:22:11.199Z,96476.75
2023-01-29T06:27:13.460Z,96474.25
2023-01-29T06:32:15.912Z,96498.03
2023-01-29T06:37:18.263Z,96487.81
2023-01-29T06:42:20.876Z,96491.22
2023-01-29T06:47:23.943Z,96508.91
2023-01-29T06:52:29.144Z,96501.97
2023-01-29T06:57:31.451Z,96496.66
2023-01-29T07:02:33.805Z,96508.09
2023-01-29T07:07:37.162Z,96513.97
2023-01-29T07:12:39.354Z,96529.19
2023-01-29T07:17:41.527Z,96531.13
2023-01-29T07:22:43.697Z,96515.81
2023-01-29T07:27:45.977Z,96526.84
2023-01-29T07:32:48.262Z,96537.13
2023-01-29T07:37:51.463Z,96510.69
2023-01-29T07:42:59.344Z,96548.81
2023-01-29T07:48:05.185Z,96536.19
2023-01-29T07:53:07.942Z,96555.78
2023-01-29T07:58:10.259Z,96539.72
2023-01-29T08:03:18.065Z,96569.69
2023-01-29T08:08:20.282Z,96579.03
2023-01-29T08:13:22.538Z,96585.03
2023-01-29T08:18:24.801Z,96562.69
2023-01-29T08:23:27.321Z,96569.09
2023-01-29T08:28:29.525Z,96565.38
2023-01-29T08:33:38.992Z,96568.16
2023-01-29T08:38:42.987Z,96580.81
2023-01-29T08:43:46.737Z,96578.53
2023-01-29T08:48:48.911Z,96593.19
2023-01-29T08:53:51.694Z,96611.03
2023-01-29T08:58:53.888Z,96588.09
2023-01-29T09:03:59.004Z,96557.91
2023-01-29T09:09:01.475Z,96602.16
2023-01-29T09:14:03.819Z,96572.09
2023-01-29T09:19:05.909Z,96590.50
2023-01-29T09:24:08.108Z,96562.19
2023-01-29T09:29:11.358Z,96589.09
2023-01-29T09:34:13.619Z,96587.66
2023-01-29T09:39:16.126Z,96582.25
2023-01-29T09:45:05.806Z,96585.84
2023-01-29T09:50:20.399Z,96572.34
2023-01-29T09:55:30.394Z,96564.22
2023-01-29T10:00:48.796Z,96547.56
2023-01-29T10:06:09.655Z,96578.38
2023-01-29T10:11:33.321Z,96551.13
2023-01-29T10:17:14.418Z,96569.88
2023-01-29T10:22:40.085Z,96538.31
2023-01-29T10:27:57.003Z,96541.56
2023-01-29T10:33:03.954Z,96514.19
2023-01-29T10:38:15.570Z,96557.38
2023-01-29T10:43:27.351Z,96557.50
2023-01-29T10:48:41.494Z,96552.34
2023-01-29T10:54:01.584Z,96550.03
2023-01-29T10:59:32.578Z,96542.28
2023-01-29T11:04:36.897Z,96474.25
2023-01-29T11:09:58.157Z,96518.09
2023-01-29T11:15:27.024Z,96506.38
2023-01-29T11:20:31.492Z,96517.41
2023-01-29T11:25:34.003Z,96484.66
2023-01-29T11:30:39.269Z,96508.03
2023-01-29T11:35:41.460Z,96456.28
2023-01-29T11:40:44.898Z,96481.44
2023-01-29T11:45:51.871Z,96438.97
2023-01-29T11:51:03.518Z,96476.44
2023-01-29T11:56:22.416Z,96491.78
2023-01-29T12:01:35.418Z,96463.78
2023-01-29T12:06:44.590Z,96465.50
2023-01-29T12:11:47.331Z,96496.88
2023-01-29T12:17:02.757Z,96486.00
2023-01-29T12:22:15.717Z,96496.38
2023-01-29T12:27:22.531Z,96484.44
2023-01-29T12:32:50.155Z,96471.31
2023-01-29T12:37:58.690Z,96501.13
2023-01-29T12:43:07.629Z,96488.50
2023-01-29T12:48:14.846Z,96500.97
2023-01-29T12:53:35.904Z,96500.19
2023-01-29T12:58:45.708Z,96499.44
2023-01-29T13:03:48.041Z,96495.63
2023-01-29T13:08:54.207Z,96464.28
2023-01-29T13:14:04.569Z,96502.72
2023-01-29T13:19:33.423Z,96451.59
2023-01-29T13:24:47.887Z,96492.28
2023-01-29T13:29:53.697Z,96490.91
2023-01-29T13:34:59.086Z,96476.03
2023-01-29T13:40:07.592Z,96483.81
2023-01-29T13:45:23.086Z,96476.16
2023-01-29T13:50:46.314Z,96459.00
2023-01-29T13:55:48.722Z,96509.00
2023-01-29T14:00:51.446Z,96502.09
2023-01-29T14:06:01.503Z,96531.44
2023-01-29T14:11:16.149Z,96531.25
2023-01-29T14:16:18.335Z,96532.09
2023-01-29T14:21:20.426Z,96523.75
2023-01-29T14:26:22.725Z,96529.06
2023-01-29T14:31:43.233Z,96504.19
2023-01-29T14:36:47.567Z,96531.53
2023-01-29T14:41:52.274Z,96526.16
2023-01-29T14:46:54.541Z,96503.25
2023-01-29T14:52:00.088Z,96544.72
2023-01-29T14:57:06.918Z,96537.75
2023-01-29T15:02:37.342Z,96502.06
2023-01-29T15:07:47.872Z,96540.28
2023-01-29T15:13:18.438Z,96550.34
2023-01-29T15:18:40.239Z,96552.75
2023-01-29T15:23:48.351Z,96546.16
2023-01-29T15:29:04.551Z,96559.25
2023-01-29T15:34:08.598Z,96571.75
2023-01-29T15:39:14.319Z,96576.53
2023-01-29T15:44:24.220Z,96524.38
2023-01-29T15:49:35.631Z,96579.22
2023-01-29T15:54:39.569Z,96551.75
2023-01-29T15:59:44.994Z,96586.47
2023-01-29T16:04:47.722Z,96543.91
2023-01-29T16:09:52.195Z,96567.91
2023-01-29T16:14:55.982Z,96571.31
2023-01-29T16:20:00.490Z,96561.50
2023-01-29T16:25:05.904Z,96574.38
2023-01-29T16:30:08.998Z,96579.81
2023-01-29T16:35:17.947Z,96561.16
2023-01-29T16:40:33.788Z,96569.94
2023-01-29T16:45:36.957Z,96573.00
2023-01-29T16:50:53.914Z,96571.72
2023-01-29T16:56:07.396Z,96557.88
2023-01-29T17:01:11.647Z,96579.03
2023-01-29T17:20:28.741Z,96525.75
2023-01-29T17:25:31.178Z,96539.50
2023-01-29T17:30:37.416Z,96541.59
2023-01-29T17:35:42.983Z,96568.97
2023-01-29T17:40:56.869Z,96555.88
2023-01-29T17:45:59.547Z,96577.53
2023-01-29T17:51:04.820Z,96523.84
2023-01-29T17:56:11.207Z,96514.34
2023-01-29T18:01:13.868Z,96542.50
2023-01-29T18:06:29.163Z,96554.88
2023-01-29T18:11:31.899Z,96508.22
2023-01-29T18:16:38.761Z,96548.16
2023-01-29T18:21:41.891Z,96542.84
2023-01-29T18:26:44.280Z,96506.34
2023-01-29T18:31:49.693Z,96528.63
2023-01-29T18:36:52.355Z,96542.66
2023-01-29T18:41:54.663Z,96538.91
2023-01-29T18:46:57.106Z,96539.50
2023-01-29T18:51:59.557Z,96558.25
2023-01-29T18:57:13.895Z,96557.06
2023-01-29T19:02:24.559Z,96571.97
2023-01-29T19:07:27.197Z,96566.06
2023-01-29T19:12:29.529Z,96528.63
2023-01-29T19:17:31.751Z,96568.78
2023-01-29T19:22:34.182Z,96576.47
2023-01-29T19:27:36.652Z,96558.25
2023-01-29T19:32:40.038Z,96548.16
2023-01-29T19:37:42.698Z,96552.41
2023-01-29T19:42:45.121Z,96510.47
2023-01-29T19:47:47.575Z,96560.75
2023-01-29T19:52:51.817Z,96572.59
2023-01-29T19:57:55.789Z,96570.97
2023-01-29T20:02:58.105Z,96539.88
2023-01-29T20:08:00.551Z,96547.31
2023-01-29T20:13:02.843Z,96545.13
2023-01-29T20:18:11.912Z,96511.13
2023-01-29T20:23:36.628Z,96546.78
2023-01-29T20:28:41.034Z,96559.44
2023-01-29T20:33:44.776Z,96518.53
2023-01-29T20:38:48.276Z,96536.75
2023-01-29T20:43:50.735Z,96523.09
2023-01-29T20:48:54.349Z,96559.59
2023-01-29T20:53:57.931Z,96560.28
2023-01-29T20:59:02.467Z,96567.13
2023-01-29T21:04:04.929Z,96543.56
2023-01-29T21:09:07.204Z,96564.78
2023-01-29T21:14:09.337Z,96576.59
2023-01-29T21:19:15.081Z,96573.50
2023-01-29T21:24:19.064Z,96549.44
2023-01-29T21:29:21.359Z,96548.00
2023-01-29T21:34:23.756Z,96565.06
2023-01-29T21:39:26.662Z,96564.38
2023-01-29T21:44:29.283Z,96567.63
2023-01-29T21:49:31.515Z,96561.47
2023-01-29T21:54:35.688Z,96571.22
2023-01-29T21:59:37.953Z,96568.69
2023-01-29T22:04:41.112Z,96574.69
2023-01-29T22:09:43.388Z,96535.09
2023-01-29T22:14:47.526Z,96545.38
2023-01-29T22:19:50.032Z,96564.41
2023-01-29T22:24:52.916Z,96522.66
2023-01-29T22:29:55.126Z,96550.97
2023-01-29T22:34:57.176Z,96523.41
2023-01-29T22:39:59.476Z,96517.44
2023-01-29T22:45:01.629Z,96523.50
2023-01-29T22:50:05.730Z,96551.06
2023-01-29T22:55:10.625Z,96521.16
2023-01-29T23:00:13.295Z,96534.59
2023-01-29T23:05:15.966Z,96532.03
2023-01-29T23:10:21.260Z,96516.13
2023-01-29T23:15:23.495Z,96518.78
2023-01-29T23:20:25.653Z,96538.28
2023-01-29T23:25:47.839Z,96503.53
2023-01-29T23:30:52.269Z,96542.28
2023-01-29T23:35:54.937Z,96507.06
2023-01-29T23:40:58.345Z,96499.09
2023-01-29T23:46:00.513Z,96515.41
2023-01-29T23:51:02.882Z,96496.94
2023-01-29T23:56:06.571Z,96538.53
